sensor_id;sensor_type;location;lat;lon;timestamp;temperature;humidity
32706;DHT22;19094;50.972;3.538;2023-05-13T00:00:33;18.60;67.70
32706;DHT22;19094;50.972;3.538;2023-05-13T00:02:59;18.60;67.70
32706;DHT22;19094;50.972;3.538;2023-05-13T00:05:25;18.60;67.90
32706;DHT22;19094;50.972;3.538;2023-05-13T00:07:50;18.60;67.80
32706;DHT22;19094;50.972;3.538;2023-05-13T00:10:16;18.60;67.90
32706;DHT22;19094;50.972;3.538;2023-05-13T00:12:41;18.60;67.90
32706;DHT22;19094;50.972;3.538;2023-05-13T00:15:08;18.60;68.00
32706;DHT22;19094;50.972;3.538;2023-05-13T00:17:34;18.50;67.70
32706;DHT22;19094;50.972;3.538;2023-05-13T00:19:59;18.50;68.20
32706;DHT22;19094;50.972;3.538;2023-05-13T00:22:25;18.40;68.40
32706;DHT22;19094;50.972;3.538;2023-05-13T00:24:51;18.40;68.70
32706;DHT22;19094;50.972;3.538;2023-05-13T00:27:16;18.40;68.90
32706;DHT22;19094;50.972;3.538;2023-05-13T00:29:42;18.30;68.80
32706;DHT22;19094;50.972;3.538;2023-05-13T00:32:07;18.40;68.80
32706;DHT22;19094;50.972;3.538;2023-05-13T00:34:33;18.40;68.90
32706;DHT22;19094;50.972;3.538;2023-05-13T00:36:59;18.40;68.70
32706;DHT22;19094;50.972;3.538;2023-05-13T00:39:25;18.30;68.70
32706;DHT22;19094;50.972;3.538;2023-05-13T00:41:51;18.30;69.10
32706;DHT22;19094;50.972;3.538;2023-05-13T00:44:17;18.30;69.10
32706;DHT22;19094;50.972;3.538;2023-05-13T00:46:42;18.30;69.10
32706;DHT22;19094;50.972;3.538;2023-05-13T00:49:08;18.20;69.10
32706;DHT22;19094;50.972;3.538;2023-05-13T00:51:35;18.20;69.60
32706;DHT22;19094;50.972;3.538;2023-05-13T00:54:01;18.20;69.30
32706;DHT22;19094;50.972;3.538;2023-05-13T00:56:26;18.20;69.20
32706;DHT22;19094;50.972;3.538;2023-05-13T00:58:52;18.20;69.40
32706;DHT22;19094;50.972;3.538;2023-05-13T01:04:13;18.20;69.50
32706;DHT22;19094;50.972;3.538;2023-05-13T01:09:41;18.20;69.50
32706;DHT22;19094;50.972;3.538;2023-05-13T01:12:12;18.20;69.60
32706;DHT22;19094;50.972;3.538;2023-05-13T01:14:47;18.20;68.90
32706;DHT22;19094;50.972;3.538;2023-05-13T01:17:19;18.20;68.60
32706;DHT22;19094;50.972;3.538;2023-05-13T01:19:55;18.20;68.90
32706;DHT22;19094;50.972;3.538;2023-05-13T01:22:22;18.20;68.70
32706;DHT22;19094;50.972;3.538;2023-05-13T01:24:47;18.20;68.90
32706;DHT22;19094;50.972;3.538;2023-05-13T01:27:15;18.20;68.90
32706;DHT22;19094;50.972;3.538;2023-05-13T01:29:41;18.20;68.90
32706;DHT22;19094;50.972;3.538;2023-05-13T01:32:08;18.20;69.20
32706;DHT22;19094;50.972;3.538;2023-05-13T01:34:35;18.10;69.40
32706;DHT22;19094;50.972;3.538;2023-05-13T01:37:01;18.10;69.60
32706;DHT22;19094;50.972;3.538;2023-05-13T01:39:27;18.00;69.80
32706;DHT22;19094;50.972;3.538;2023-05-13T01:41:54;18.00;69.90
32706;DHT22;19094;50.972;3.538;2023-05-13T01:44:20;18.00;69.80
32706;DHT22;19094;50.972;3.538;2023-05-13T01:46:46;18.00;70.00
32706;DHT22;19094;50.972;3.538;2023-05-13T01:49:15;18.00;70.10
32706;DHT22;19094;50.972;3.538;2023-05-13T01:51:41;18.00;70.10
32706;DHT22;19094;50.972;3.538;2023-05-13T01:54:06;18.00;70.20
32706;DHT22;19094;50.972;3.538;2023-05-13T01:56:32;17.90;70.30
32706;DHT22;19094;50.972;3.538;2023-05-13T01:58:58;17.80;70.60
32706;DHT22;19094;50.972;3.538;2023-05-13T02:01:24;17.80;70.70
32706;DHT22;19094;50.972;3.538;2023-05-13T02:03:49;17.80;70.60
32706;DHT22;19094;50.972;3.538;2023-05-13T02:06:15;17.80;70.70
32706;DHT22;19094;50.972;3.538;2023-05-13T02:08:41;17.80;70.60
32706;DHT22;19094;50.972;3.538;2023-05-13T02:11:07;17.80;70.80
32706;DHT22;19094;50.972;3.538;2023-05-13T02:13:33;17.70;70.80
32706;DHT22;19094;50.972;3.538;2023-05-13T02:15:59;17.80;70.90
32706;DHT22;19094;50.972;3.538;2023-05-13T02:18:25;17.80;70.80
32706;DHT22;19094;50.972;3.538;2023-05-13T02:20:50;17.80;70.80
32706;DHT22;19094;50.972;3.538;2023-05-13T02:23:19;17.70;71.00
32706;DHT22;19094;50.972;3.538;2023-05-13T02:25:44;17.70;71.20
32706;DHT22;19094;50.972;3.538;2023-05-13T02:28:10;17.70;71.20
32706;DHT22;19094;50.972;3.538;2023-05-13T02:30:36;17.70;71.20
32706;DHT22;19094;50.972;3.538;2023-05-13T02:33:01;17.70;71.20
32706;DHT22;19094;50.972;3.538;2023-05-13T02:35:27;17.70;71.20
32706;DHT22;19094;50.972;3.538;2023-05-13T02:37:56;17.70;71.20
32706;DHT22;19094;50.972;3.538;2023-05-13T02:40:22;17.70;71.30
32706;DHT22;19094;50.972;3.538;2023-05-13T02:42:47;17.70;71.30
32706;DHT22;19094;50.972;3.538;2023-05-13T02:45:13;17.70;71.30
32706;DHT22;19094;50.972;3.538;2023-05-13T02:47:39;17.60;71.30
32706;DHT22;19094;50.972;3.538;2023-05-13T02:50:05;17.60;71.50
32706;DHT22;19094;50.972;3.538;2023-05-13T02:52:32;17.60;71.30
32706;DHT22;19094;50.972;3.538;2023-05-13T02:55:00;17.70;70.90
32706;DHT22;19094;50.972;3.538;2023-05-13T02:57:26;17.70;70.70
32706;DHT22;19094;50.972;3.538;2023-05-13T02:59:52;17.70;70.80
32706;DHT22;19094;50.972;3.538;2023-05-13T03:02:17;17.70;71.10
32706;DHT22;19094;50.972;3.538;2023-05-13T03:04:43;17.70;71.80
32706;DHT22;19094;50.972;3.538;2023-05-13T03:07:09;17.60;71.10
32706;DHT22;19094;50.972;3.538;2023-05-13T03:09:35;17.60;71.10
32706;DHT22;19094;50.972;3.538;2023-05-13T03:12:04;17.60;71.00
32706;DHT22;19094;50.972;3.538;2023-05-13T03:14:30;17.60;71.00
32706;DHT22;19094;50.972;3.538;2023-05-13T03:16:56;17.60;71.30
32706;DHT22;19094;50.972;3.538;2023-05-13T03:19:22;17.60;71.30
32706;DHT22;19094;50.972;3.538;2023-05-13T03:21:48;17.60;71.40
32706;DHT22;19094;50.972;3.538;2023-05-13T03:24:14;17.50;71.50
32706;DHT22;19094;50.972;3.538;2023-05-13T03:26:39;17.50;71.50
32706;DHT22;19094;50.972;3.538;2023-05-13T03:29:05;17.50;71.60
32706;DHT22;19094;50.972;3.538;2023-05-13T03:31:30;17.50;71.60
32706;DHT22;19094;50.972;3.538;2023-05-13T03:33:56;17.50;71.50
32706;DHT22;19094;50.972;3.538;2023-05-13T03:36:22;17.50;71.70
32706;DHT22;19094;50.972;3.538;2023-05-13T03:38:48;17.50;71.90
32706;DHT22;19094;50.972;3.538;2023-05-13T03:41:13;17.40;72.20
32706;DHT22;19094;50.972;3.538;2023-05-13T03:43:42;17.40;72.20
32706;DHT22;19094;50.972;3.538;2023-05-13T03:46:08;17.40;72.30
32706;DHT22;19094;50.972;3.538;2023-05-13T03:48:34;17.40;72.40
32706;DHT22;19094;50.972;3.538;2023-05-13T03:51:00;17.40;72.40
32706;DHT22;19094;50.972;3.538;2023-05-13T03:53:26;17.40;72.40
32706;DHT22;19094;50.972;3.538;2023-05-13T03:55:52;17.40;72.30
32706;DHT22;19094;50.972;3.538;2023-05-13T03:58:17;17.40;72.30
32706;DHT22;19094;50.972;3.538;2023-05-13T04:00:44;17.40;72.40
32706;DHT22;19094;50.972;3.538;2023-05-13T04:03:13;17.40;72.30
32706;DHT22;19094;50.972;3.538;2023-05-13T04:05:38;17.40;72.20
32706;DHT22;19094;50.972;3.538;2023-05-13T04:08:04;17.40;72.30
32706;DHT22;19094;50.972;3.538;2023-05-13T04:10:30;17.40;72.40
32706;DHT22;19094;50.972;3.538;2023-05-13T04:12:55;17.40;72.40
32706;DHT22;19094;50.972;3.538;2023-05-13T04:15:21;17.40;72.50
32706;DHT22;19094;50.972;3.538;2023-05-13T04:17:47;17.40;72.40
32706;DHT22;19094;50.972;3.538;2023-05-13T04:20:12;17.30;72.30
32706;DHT22;19094;50.972;3.538;2023-05-13T04:22:38;17.40;72.40
32706;DHT22;19094;50.972;3.538;2023-05-13T04:25:04;17.40;72.20
32706;DHT22;19094;50.972;3.538;2023-05-13T04:27:30;17.50;71.90
32706;DHT22;19094;50.972;3.538;2023-05-13T04:29:55;17.50;71.70
32706;DHT22;19094;50.972;3.538;2023-05-13T04:32:21;17.50;71.70
32706;DHT22;19094;50.972;3.538;2023-05-13T04:34:51;17.50;71.80
32706;DHT22;19094;50.972;3.538;2023-05-13T04:37:17;17.50;71.70
32706;DHT22;19094;50.972;3.538;2023-05-13T04:39:44;17.50;71.90
32706;DHT22;19094;50.972;3.538;2023-05-13T04:42:11;17.50;71.90
32706;DHT22;19094;50.972;3.538;2023-05-13T04:44:37;17.40;71.90
32706;DHT22;19094;50.972;3.538;2023-05-13T04:47:02;17.40;71.90
32706;DHT22;19094;50.972;3.538;2023-05-13T04:49:28;17.40;72.00
32706;DHT22;19094;50.972;3.538;2023-05-13T04:51:54;17.40;72.00
32706;DHT22;19094;50.972;3.538;2023-05-13T04:54:19;17.30;72.00
32706;DHT22;19094;50.972;3.538;2023-05-13T04:56:45;17.40;72.10
32706;DHT22;19094;50.972;3.538;2023-05-13T04:59:11;17.30;72.00
32706;DHT22;19094;50.972;3.538;2023-05-13T05:01:36;17.40;72.10
32706;DHT22;19094;50.972;3.538;2023-05-13T05:04:02;17.40;72.10
32706;DHT22;19094;50.972;3.538;2023-05-13T05:06:28;17.40;72.10
32706;DHT22;19094;50.972;3.538;2023-05-13T05:08:53;17.30;72.20
32706;DHT22;19094;50.972;3.538;2023-05-13T05:11:19;17.30;72.30
32706;DHT22;19094;50.972;3.538;2023-05-13T05:13:45;17.30;72.40
32706;DHT22;19094;50.972;3.538;2023-05-13T05:16:10;17.30;72.60
32706;DHT22;19094;50.972;3.538;2023-05-13T05:18:36;17.30;72.70
32706;DHT22;19094;50.972;3.538;2023-05-13T05:21:02;17.30;72.60
32706;DHT22;19094;50.972;3.538;2023-05-13T05:23:27;17.30;72.60
32706;DHT22;19094;50.972;3.538;2023-05-13T05:25:53;17.30;72.60
32706;DHT22;19094;50.972;3.538;2023-05-13T05:28:19;17.30;72.60
32706;DHT22;19094;50.972;3.538;2023-05-13T05:30:44;17.30;72.50
32706;DHT22;19094;50.972;3.538;2023-05-13T05:33:10;17.30;72.40
32706;DHT22;19094;50.972;3.538;2023-05-13T05:35:36;17.30;72.50
32706;DHT22;19094;50.972;3.538;2023-05-13T05:38:06;17.30;72.50
32706;DHT22;19094;50.972;3.538;2023-05-13T05:40:34;17.40;72.40
32706;DHT22;19094;50.972;3.538;2023-05-13T05:43:01;17.40;72.40
32706;DHT22;19094;50.972;3.538;2023-05-13T05:45:27;17.30;72.30
32706;DHT22;19094;50.972;3.538;2023-05-13T05:47:52;17.40;72.30
32706;DHT22;19094;50.972;3.538;2023-05-13T05:50:19;17.40;72.30
32706;DHT22;19094;50.972;3.538;2023-05-13T05:52:45;17.40;72.20
32706;DHT22;19094;50.972;3.538;2023-05-13T05:55:11;17.40;72.00
32706;DHT22;19094;50.972;3.538;2023-05-13T05:57:36;17.40;72.10
32706;DHT22;19094;50.972;3.538;2023-05-13T06:00:02;17.40;71.90
32706;DHT22;19094;50.972;3.538;2023-05-13T06:02:28;17.40;71.80
32706;DHT22;19094;50.972;3.538;2023-05-13T06:04:53;17.50;71.90
32706;DHT22;19094;50.972;3.538;2023-05-13T06:07:19;17.50;71.80
32706;DHT22;19094;50.972;3.538;2023-05-13T06:09:45;17.40;71.70
32706;DHT22;19094;50.972;3.538;2023-05-13T06:12:10;17.50;71.40
32706;DHT22;19094;50.972;3.538;2023-05-13T06:14:36;17.50;71.20
32706;DHT22;19094;50.972;3.538;2023-05-13T06:17:01;17.50;71.00
32706;DHT22;19094;50.972;3.538;2023-05-13T06:19:27;17.60;70.80
32706;DHT22;19094;50.972;3.538;2023-05-13T06:21:53;17.60;70.70
32706;DHT22;19094;50.972;3.538;2023-05-13T06:24:18;17.60;70.60
32706;DHT22;19094;50.972;3.538;2023-05-13T06:26:44;17.60;70.80
32706;DHT22;19094;50.972;3.538;2023-05-13T06:29:10;17.60;70.70
32706;DHT22;19094;50.972;3.538;2023-05-13T06:31:36;17.60;70.80
32706;DHT22;19094;50.972;3.538;2023-05-13T06:34:01;17.70;70.60
32706;DHT22;19094;50.972;3.538;2023-05-13T06:36:27;17.70;70.20
32706;DHT22;19094;50.972;3.538;2023-05-13T06:38:53;17.70;70.30
32706;DHT22;19094;50.972;3.538;2023-05-13T06:41:18;17.70;70.50
32706;DHT22;19094;50.972;3.538;2023-05-13T06:43:45;17.70;70.50
32706;DHT22;19094;50.972;3.538;2023-05-13T06:46:11;17.70;70.40
32706;DHT22;19094;50.972;3.538;2023-05-13T06:48:37;17.70;70.50
32706;DHT22;19094;50.972;3.538;2023-05-13T06:51:03;17.70;70.40
32706;DHT22;19094;50.972;3.538;2023-05-13T06:53:29;17.70;70.40
32706;DHT22;19094;50.972;3.538;2023-05-13T06:55:56;17.70;70.40
32706;DHT22;19094;50.972;3.538;2023-05-13T06:58:22;17.80;70.40
32706;DHT22;19094;50.972;3.538;2023-05-13T07:00:47;17.80;70.10
32706;DHT22;19094;50.972;3.538;2023-05-13T07:03:13;17.80;70.10
32706;DHT22;19094;50.972;3.538;2023-05-13T07:05:39;17.90;70.20
32706;DHT22;19094;50.972;3.538;2023-05-13T07:08:04;17.90;70.10
32706;DHT22;19094;50.972;3.538;2023-05-13T07:10:33;17.90;69.70
32706;DHT22;19094;50.972;3.538;2023-05-13T07:13:03;18.00;69.60
32706;DHT22;19094;50.972;3.538;2023-05-13T07:15:29;17.90;69.60
32706;DHT22;19094;50.972;3.538;2023-05-13T07:17:54;18.00;69.60
32706;DHT22;19094;50.972;3.538;2023-05-13T07:20:20;18.10;69.30
32706;DHT22;19094;50.972;3.538;2023-05-13T07:22:48;18.00;69.50
32706;DHT22;19094;50.972;3.538;2023-05-13T07:25:14;18.10;70.40
32706;DHT22;19094;50.972;3.538;2023-05-13T07:27:39;18.00;69.50
32706;DHT22;19094;50.972;3.538;2023-05-13T07:30:05;18.10;69.40
32706;DHT22;19094;50.972;3.538;2023-05-13T07:32:31;18.20;69.40
32706;DHT22;19094;50.972;3.538;2023-05-13T07:34:57;18.10;69.60
32706;DHT22;19094;50.972;3.538;2023-05-13T07:37:22;18.30;69.10
32706;DHT22;19094;50.972;3.538;2023-05-13T07:39:48;18.40;68.60
32706;DHT22;19094;50.972;3.538;2023-05-13T07:42:14;18.50;68.00
32706;DHT22;19094;50.972;3.538;2023-05-13T07:44:40;18.60;67.70
32706;DHT22;19094;50.972;3.538;2023-05-13T07:47:08;18.60;67.60
32706;DHT22;19094;50.972;3.538;2023-05-13T07:49:34;18.60;67.30
32706;DHT22;19094;50.972;3.538;2023-05-13T07:52:00;18.60;67.40
32706;DHT22;19094;50.972;3.538;2023-05-13T07:54:25;18.70;67.20
32706;DHT22;19094;50.972;3.538;2023-05-13T07:56:51;18.70;67.20
32706;DHT22;19094;50.972;3.538;2023-05-13T07:59:17;18.70;67.30
32706;DHT22;19094;50.972;3.538;2023-05-13T08:01:43;18.70;67.10
32706;DHT22;19094;50.972;3.538;2023-05-13T08:04:09;18.80;67.10
32706;DHT22;19094;50.972;3.538;2023-05-13T08:06:35;18.80;66.80
32706;DHT22;19094;50.972;3.538;2023-05-13T08:09:00;18.80;67.20
32706;DHT22;19094;50.972;3.538;2023-05-13T08:11:27;18.80;68.00
32706;DHT22;19094;50.972;3.538;2023-05-13T08:13:52;18.80;67.40
32706;DHT22;19094;50.972;3.538;2023-05-13T08:16:18;18.90;66.90
32706;DHT22;19094;50.972;3.538;2023-05-13T08:18:44;19.00;66.60
32706;DHT22;19094;50.972;3.538;2023-05-13T08:21:10;19.00;66.30
32706;DHT22;19094;50.972;3.538;2023-05-13T08:23:38;19.10;66.20
32706;DHT22;19094;50.972;3.538;2023-05-13T08:26:04;19.10;66.00
32706;DHT22;19094;50.972;3.538;2023-05-13T08:28:29;19.10;65.90
32706;DHT22;19094;50.972;3.538;2023-05-13T08:30:55;19.10;66.10
32706;DHT22;19094;50.972;3.538;2023-05-13T08:33:28;18.90;68.90
32706;DHT22;19094;50.972;3.538;2023-05-13T08:35:54;18.60;70.20
32706;DHT22;19094;50.972;3.538;2023-05-13T08:38:20;18.70;70.10
32706;DHT22;19094;50.972;3.538;2023-05-13T08:40:45;19.10;67.80
32706;DHT22;19094;50.972;3.538;2023-05-13T08:43:14;19.20;66.40
32706;DHT22;19094;50.972;3.538;2023-05-13T08:45:41;19.40;65.60
32706;DHT22;19094;50.972;3.538;2023-05-13T08:48:09;19.40;65.50
32706;DHT22;19094;50.972;3.538;2023-05-13T08:50:36;19.50;65.30
32706;DHT22;19094;50.972;3.538;2023-05-13T08:53:01;19.50;65.70
32706;DHT22;19094;50.972;3.538;2023-05-13T08:55:28;19.50;65.70
32706;DHT22;19094;50.972;3.538;2023-05-13T08:57:53;19.50;65.40
32706;DHT22;19094;50.972;3.538;2023-05-13T09:00:19;19.50;65.00
32706;DHT22;19094;50.972;3.538;2023-05-13T09:02:45;19.50;66.60
32706;DHT22;19094;50.972;3.538;2023-05-13T09:05:10;19.60;65.60
32706;DHT22;19094;50.972;3.538;2023-05-13T09:07:37;19.60;65.40
32706;DHT22;19094;50.972;3.538;2023-05-13T09:10:04;19.70;65.20
32706;DHT22;19094;50.972;3.538;2023-05-13T09:12:50;19.70;65.10
32706;DHT22;19094;50.972;3.538;2023-05-13T09:15:21;19.70;65.10
32706;DHT22;19094;50.972;3.538;2023-05-13T09:17:49;19.80;64.90
32706;DHT22;19094;50.972;3.538;2023-05-13T09:20:17;19.80;64.90
32706;DHT22;19094;50.972;3.538;2023-05-13T09:22:47;19.80;64.70
32706;DHT22;19094;50.972;3.538;2023-05-13T09:25:14;19.80;64.50
32706;DHT22;19094;50.972;3.538;2023-05-13T09:27:47;19.80;64.40
32706;DHT22;19094;50.972;3.538;2023-05-13T09:30:13;19.90;64.40
32706;DHT22;19094;50.972;3.538;2023-05-13T09:32:39;19.90;64.30
32706;DHT22;19094;50.972;3.538;2023-05-13T09:35:13;19.90;64.20
32706;DHT22;19094;50.972;3.538;2023-05-13T09:37:46;19.90;64.00
32706;DHT22;19094;50.972;3.538;2023-05-13T09:40:16;20.00;64.10
32706;DHT22;19094;50.972;3.538;2023-05-13T09:42:43;20.00;63.90
32706;DHT22;19094;50.972;3.538;2023-05-13T09:45:13;20.00;63.90
32706;DHT22;19094;50.972;3.538;2023-05-13T09:47:39;20.10;63.70
32706;DHT22;19094;50.972;3.538;2023-05-13T09:50:06;20.10;63.70
32706;DHT22;19094;50.972;3.538;2023-05-13T09:52:34;20.10;63.70
32706;DHT22;19094;50.972;3.538;2023-05-13T09:55:00;20.10;63.60
32706;DHT22;19094;50.972;3.538;2023-05-13T09:57:30;20.10;63.60
32706;DHT22;19094;50.972;3.538;2023-05-13T10:00:03;20.10;63.50
32706;DHT22;19094;50.972;3.538;2023-05-13T10:02:31;20.00;63.90
32706;DHT22;19094;50.972;3.538;2023-05-13T10:04:57;20.10;63.90
32706;DHT22;19094;50.972;3.538;2023-05-13T10:07:24;20.20;63.80
32706;DHT22;19094;50.972;3.538;2023-05-13T10:09:57;20.20;63.60
32706;DHT22;19094;50.972;3.538;2023-05-13T10:12:26;20.20;63.50
32706;DHT22;19094;50.972;3.538;2023-05-13T10:14:53;20.30;63.40
32706;DHT22;19094;50.972;3.538;2023-05-13T10:17:23;20.30;63.40
32706;DHT22;19094;50.972;3.538;2023-05-13T10:19:50;20.20;63.40
32706;DHT22;19094;50.972;3.538;2023-05-13T10:22:28;20.30;63.30
32706;DHT22;19094;50.972;3.538;2023-05-13T10:24:58;20.30;63.40
32706;DHT22;19094;50.972;3.538;2023-05-13T10:27:31;20.30;63.20
32706;DHT22;19094;50.972;3.538;2023-05-13T10:29:59;20.30;63.00
32706;DHT22;19094;50.972;3.538;2023-05-13T10:32:27;20.30;63.00
32706;DHT22;19094;50.972;3.538;2023-05-13T10:35:12;20.30;63.20
32706;DHT22;19094;50.972;3.538;2023-05-13T10:38:16;20.30;63.20
32706;DHT22;19094;50.972;3.538;2023-05-13T10:41:08;20.30;63.10
32706;DHT22;19094;50.972;3.538;2023-05-13T10:43:34;20.40;63.00
32706;DHT22;19094;50.972;3.538;2023-05-13T10:46:03;20.40;62.90
32706;DHT22;19094;50.972;3.538;2023-05-13T10:48:46;20.30;63.00
32706;DHT22;19094;50.972;3.538;2023-05-13T10:51:16;20.30;63.20
32706;DHT22;19094;50.972;3.538;2023-05-13T10:53:53;20.40;63.40
32706;DHT22;19094;50.972;3.538;2023-05-13T10:56:25;20.40;63.50
32706;DHT22;19094;50.972;3.538;2023-05-13T10:59:03;20.50;63.20
32706;DHT22;19094;50.972;3.538;2023-05-13T11:01:33;20.50;63.20
32706;DHT22;19094;50.972;3.538;2023-05-13T11:04:01;20.50;63.20
32706;DHT22;19094;50.972;3.538;2023-05-13T11:06:33;20.50;63.40
32706;DHT22;19094;50.972;3.538;2023-05-13T11:08:59;20.50;63.90
32706;DHT22;19094;50.972;3.538;2023-05-13T11:11:29;20.50;63.60
32706;DHT22;19094;50.972;3.538;2023-05-13T11:16:53;20.40;64.60
32706;DHT22;19094;50.972;3.538;2023-05-13T11:19:27;20.60;64.10
32706;DHT22;19094;50.972;3.538;2023-05-13T11:21:54;20.70;63.70
32706;DHT22;19094;50.972;3.538;2023-05-13T11:24:20;20.70;63.40
32706;DHT22;19094;50.972;3.538;2023-05-13T11:26:54;20.70;63.20
32706;DHT22;19094;50.972;3.538;2023-05-13T11:29:33;20.80;63.30
32706;DHT22;19094;50.972;3.538;2023-05-13T11:32:02;20.80;62.90
32706;DHT22;19094;50.972;3.538;2023-05-13T11:34:29;20.90;62.70
32706;DHT22;19094;50.972;3.538;2023-05-13T11:36:56;20.90;62.60
32706;DHT22;19094;50.972;3.538;2023-05-13T11:39:23;21.00;63.10
32706;DHT22;19094;50.972;3.538;2023-05-13T11:41:52;20.90;62.20
32706;DHT22;19094;50.972;3.538;2023-05-13T11:44:20;21.10;62.00
32706;DHT22;19094;50.972;3.538;2023-05-13T11:54:44;21.20;61.30
32706;DHT22;19094;50.972;3.538;2023-05-13T11:59:59;21.20;61.10
32706;DHT22;19094;50.972;3.538;2023-05-13T12:02:30;21.20;61.10
32706;DHT22;19094;50.972;3.538;2023-05-13T12:04:59;21.30;61.10
32706;DHT22;19094;50.972;3.538;2023-05-13T12:07:26;21.30;61.10
32706;DHT22;19094;50.972;3.538;2023-05-13T12:09:54;21.40;60.70
32706;DHT22;19094;50.972;3.538;2023-05-13T12:12:21;21.50;60.50
32706;DHT22;19094;50.972;3.538;2023-05-13T12:14:47;21.50;60.20
32706;DHT22;19094;50.972;3.538;2023-05-13T12:17:18;21.50;60.10
32706;DHT22;19094;50.972;3.538;2023-05-13T12:20:10;21.60;59.90
32706;DHT22;19094;50.972;3.538;2023-05-13T12:22:56;21.60;60.00
32706;DHT22;19094;50.972;3.538;2023-05-13T12:28:13;21.70;59.50
32706;DHT22;19094;50.972;3.538;2023-05-13T12:30:52;21.80;59.50
32706;DHT22;19094;50.972;3.538;2023-05-13T12:35:47;21.80;59.40
32706;DHT22;19094;50.972;3.538;2023-05-13T12:38:15;21.80;59.20
32706;DHT22;19094;50.972;3.538;2023-05-13T12:40:42;21.90;59.20
32706;DHT22;19094;50.972;3.538;2023-05-13T12:43:10;21.90;59.00
32706;DHT22;19094;50.972;3.538;2023-05-13T12:45:36;22.00;59.00
32706;DHT22;19094;50.972;3.538;2023-05-13T12:48:02;22.00;58.80
32706;DHT22;19094;50.972;3.538;2023-05-13T12:50:28;22.10;58.70
32706;DHT22;19094;50.972;3.538;2023-05-13T12:52:54;22.00;58.80
32706;DHT22;19094;50.972;3.538;2023-05-13T12:55:22;22.00;58.80
32706;DHT22;19094;50.972;3.538;2023-05-13T12:58:14;22.10;58.70
32706;DHT22;19094;50.972;3.538;2023-05-13T13:00:40;22.10;58.60
32706;DHT22;19094;50.972;3.538;2023-05-13T13:03:05;22.20;58.40
32706;DHT22;19094;50.972;3.538;2023-05-13T13:05:32;22.20;58.30
32706;DHT22;19094;50.972;3.538;2023-05-13T13:07:57;22.20;58.40
32706;DHT22;19094;50.972;3.538;2023-05-13T13:10:25;22.20;58.50
32706;DHT22;19094;50.972;3.538;2023-05-13T13:12:51;22.20;58.20
32706;DHT22;19094;50.972;3.538;2023-05-13T13:15:17;22.20;58.40
32706;DHT22;19094;50.972;3.538;2023-05-13T13:17:42;22.30;58.30
32706;DHT22;19094;50.972;3.538;2023-05-13T13:20:08;22.30;58.40
32706;DHT22;19094;50.972;3.538;2023-05-13T13:22:34;22.30;58.30
32706;DHT22;19094;50.972;3.538;2023-05-13T13:25:04;22.30;58.50
32706;DHT22;19094;50.972;3.538;2023-05-13T13:27:32;22.30;58.30
32706;DHT22;19094;50.972;3.538;2023-05-13T13:29:57;22.40;58.20
32706;DHT22;19094;50.972;3.538;2023-05-13T13:32:23;22.40;58.00
32706;DHT22;19094;50.972;3.538;2023-05-13T13:34:49;22.40;58.10
32706;DHT22;19094;50.972;3.538;2023-05-13T13:37:14;22.40;58.00
32706;DHT22;19094;50.972;3.538;2023-05-13T13:39:40;22.50;57.90
32706;DHT22;19094;50.972;3.538;2023-05-13T13:42:07;22.50;57.80
32706;DHT22;19094;50.972;3.538;2023-05-13T13:44:32;22.50;57.70
32706;DHT22;19094;50.972;3.538;2023-05-13T13:46:58;22.60;57.60
32706;DHT22;19094;50.972;3.538;2023-05-13T13:49:24;22.60;57.60
32706;DHT22;19094;50.972;3.538;2023-05-13T13:51:51;22.60;57.40
32706;DHT22;19094;50.972;3.538;2023-05-13T13:54:17;22.60;57.50
32706;DHT22;19094;50.972;3.538;2023-05-13T13:56:43;22.60;57.60
32706;DHT22;19094;50.972;3.538;2023-05-13T13:59:08;22.60;57.60
32706;DHT22;19094;50.972;3.538;2023-05-13T14:01:34;22.70;57.50
32706;DHT22;19094;50.972;3.538;2023-05-13T14:04:14;22.70;57.40
32706;DHT22;19094;50.972;3.538;2023-05-13T14:06:40;22.70;57.40
32706;DHT22;19094;50.972;3.538;2023-05-13T14:09:07;22.70;57.40
32706;DHT22;19094;50.972;3.538;2023-05-13T14:11:33;22.70;57.70
32706;DHT22;19094;50.972;3.538;2023-05-13T14:13:59;22.80;57.50
32706;DHT22;19094;50.972;3.538;2023-05-13T14:16:25;22.90;57.70
32706;DHT22;19094;50.972;3.538;2023-05-13T14:18:51;22.90;57.90
32706;DHT22;19094;50.972;3.538;2023-05-13T14:21:16;23.00;57.40
32706;DHT22;19094;50.972;3.538;2023-05-13T14:23:42;23.00;57.40
32706;DHT22;19094;50.972;3.538;2023-05-13T14:26:08;23.10;57.10
32706;DHT22;19094;50.972;3.538;2023-05-13T14:28:35;23.20;57.00
32706;DHT22;19094;50.972;3.538;2023-05-13T14:31:01;23.30;56.60
32706;DHT22;19094;50.972;3.538;2023-05-13T14:33:26;23.40;56.50
32706;DHT22;19094;50.972;3.538;2023-05-13T14:35:52;23.40;56.50
32706;DHT22;19094;50.972;3.538;2023-05-13T14:38:18;23.40;56.50
32706;DHT22;19094;50.972;3.538;2023-05-13T14:40:43;23.50;56.30
32706;DHT22;19094;50.972;3.538;2023-05-13T14:43:09;23.50;56.30
32706;DHT22;19094;50.972;3.538;2023-05-13T14:45:35;23.50;56.30
32706;DHT22;19094;50.972;3.538;2023-05-13T14:48:01;23.40;56.40
32706;DHT22;19094;50.972;3.538;2023-05-13T14:50:26;23.40;56.60
32706;DHT22;19094;50.972;3.538;2023-05-13T14:52:52;23.40;56.40
32706;DHT22;19094;50.972;3.538;2023-05-13T14:55:18;23.50;56.20
32706;DHT22;19094;50.972;3.538;2023-05-13T14:57:44;23.50;56.40
32706;DHT22;19094;50.972;3.538;2023-05-13T15:00:10;23.40;56.60
32706;DHT22;19094;50.972;3.538;2023-05-13T15:02:36;23.50;56.50
32706;DHT22;19094;50.972;3.538;2023-05-13T15:05:01;23.40;56.50
32706;DHT22;19094;50.972;3.538;2023-05-13T15:07:27;23.40;56.70
32706;DHT22;19094;50.972;3.538;2023-05-13T15:09:54;23.40;56.60
32706;DHT22;19094;50.972;3.538;2023-05-13T15:12:19;23.50;56.50
32706;DHT22;19094;50.972;3.538;2023-05-13T15:14:52;23.60;56.30
32706;DHT22;19094;50.972;3.538;2023-05-13T15:17:19;23.60;56.30
32706;DHT22;19094;50.972;3.538;2023-05-13T15:19:45;23.50;56.30
32706;DHT22;19094;50.972;3.538;2023-05-13T15:22:11;23.60;56.20
32706;DHT22;19094;50.972;3.538;2023-05-13T15:24:37;23.60;55.90
32706;DHT22;19094;50.972;3.538;2023-05-13T15:27:05;23.60;56.00
32706;DHT22;19094;50.972;3.538;2023-05-13T15:29:31;23.60;56.00
32706;DHT22;19094;50.972;3.538;2023-05-13T15:31:57;23.60;56.00
32706;DHT22;19094;50.972;3.538;2023-05-13T15:34:23;23.50;56.10
32706;DHT22;19094;50.972;3.538;2023-05-13T15:36:49;23.50;56.20
32706;DHT22;19094;50.972;3.538;2023-05-13T15:39:15;23.50;56.10
32706;DHT22;19094;50.972;3.538;2023-05-13T15:41:41;23.50;56.10
32706;DHT22;19094;50.972;3.538;2023-05-13T15:44:07;23.50;56.10
32706;DHT22;19094;50.972;3.538;2023-05-13T15:46:33;23.50;56.10
32706;DHT22;19094;50.972;3.538;2023-05-13T15:48:59;23.50;56.20
32706;DHT22;19094;50.972;3.538;2023-05-13T15:51:26;23.50;56.20
32706;DHT22;19094;50.972;3.538;2023-05-13T15:53:51;23.50;56.50